sensor_id;sensor_type;location;lat;lon;timestamp;pressure;altitude;pressure_sealevel;temperature;humidity
8320;BME280;4197;42.130;24.746;2023-05-03T00:01:15;100068.94;;;10.79;73.84
8320;BME280;4197;42.130;24.746;2023-05-03T00:03:44;100076.59;;;10.89;73.59
8320;BME280;4197;42.130;24.746;2023-05-03T00:06:13;100071.53;;;10.87;72.97
8320;BME280;4197;42.130;24.746;2023-05-03T00:08:43;100079.31;;;10.89;73.54
8320;BME280;4197;42.130;24.746;2023-05-03T00:11:11;100071.41;;;10.84;73.56
8320;BME280;4197;42.130;24.746;2023-05-03T00:13:39;100061.03;;;10.74;74.39
8320;BME280;4197;42.130;24.746;2023-05-03T00:16:08;100058.75;;;10.88;73.79
8320;BME280;4197;42.130;24.746;2023-05-03T00:18:36;100067.56;;;10.85;73.36
8320;BME280;4197;42.130;24.746;2023-05-03T00:21:04;100064.16;;;10.88;73.20
8320;BME280;4197;42.130;24.746;2023-05-03T00:23:33;100073.31;;;10.83;73.21
8320;BME280;4197;42.130;24.746;2023-05-03T00:26:02;100071.41;;;10.84;72.89
8320;BME280;4197;42.130;24.746;2023-05-03T00:28:31;100072.31;;;10.88;73.03
8320;BME280;4197;42.130;24.746;2023-05-03T00:31:05;100075.03;;;10.88;73.85
8320;BME280;4197;42.130;24.746;2023-05-03T00:33:34;100067.25;;;10.86;73.66
8320;BME280;4197;42.130;24.746;2023-05-03T00:36:08;100059.66;;;10.80;74.38
8320;BME280;4197;42.130;24.746;2023-05-03T00:38:37;100054.13;;;10.76;74.36
8320;BME280;4197;42.130;24.746;2023-05-03T00:41:08;100057.03;;;10.83;74.70
8320;BME280;4197;42.130;24.746;2023-05-03T00:43:36;100056.25;;;10.83;75.04
8320;BME280;4197;42.130;24.746;2023-05-03T00:46:05;100058.28;;;10.98;74.52
8320;BME280;4197;42.130;24.746;2023-05-03T00:48:43;100057.16;;;11.11;73.99
8320;BME280;4197;42.130;24.746;2023-05-03T00:51:12;100055.09;;;11.08;73.24
8320;BME280;4197;42.130;24.746;2023-05-03T00:53:41;100068.88;;;11.15;73.84
8320;BME280;4197;42.130;24.746;2023-05-03T00:56:11;100051.13;;;11.18;73.44
8320;BME280;4197;42.130;24.746;2023-05-03T00:58:40;100048.75;;;11.16;72.94
8320;BME280;4197;42.130;24.746;2023-05-03T01:01:08;100045.59;;;11.14;73.63
8320;BME280;4197;42.130;24.746;2023-05-03T01:03:38;100049.44;;;11.13;73.47
8320;BME280;4197;42.130;24.746;2023-05-03T01:06:14;100063.69;;;11.10;74.13
8320;BME280;4197;42.130;24.746;2023-05-03T01:08:48;100051.44;;;11.16;73.20
8320;BME280;4197;42.130;24.746;2023-05-03T01:11:22;100055.72;;;11.30;72.17
8320;BME280;4197;42.130;24.746;2023-05-03T01:13:54;100053.59;;;11.23;72.91
8320;BME280;4197;42.130;24.746;2023-05-03T01:16:26;100051.03;;;11.14;72.99
8320;BME280;4197;42.130;24.746;2023-05-03T01:18:59;100054.84;;;11.26;72.27
8320;BME280;4197;42.130;24.746;2023-05-03T01:21:32;100045.97;;;11.41;71.52
8320;BME280;4197;42.130;24.746;2023-05-03T01:24:06;100039.44;;;11.30;71.31
8320;BME280;4197;42.130;24.746;2023-05-03T01:26:36;100039.84;;;11.04;71.72
8320;BME280;4197;42.130;24.746;2023-05-03T01:29:04;100032.97;;;10.82;73.43
8320;BME280;4197;42.130;24.746;2023-05-03T01:31:38;100036.72;;;10.65;75.04
8320;BME280;4197;42.130;24.746;2023-05-03T01:34:28;100036.97;;;10.47;75.52
8320;BME280;4197;42.130;24.746;2023-05-03T01:37:00;100039.09;;;10.66;76.07
8320;BME280;4197;42.130;24.746;2023-05-03T01:39:34;100041.22;;;10.85;75.14
8320;BME280;4197;42.130;24.746;2023-05-03T01:42:06;100050.97;;;10.86;75.55
8320;BME280;4197;42.130;24.746;2023-05-03T01:44:35;100045.88;;;10.85;75.88
8320;BME280;4197;42.130;24.746;2023-05-03T01:47:04;100039.84;;;10.91;73.60
8320;BME280;4197;42.130;24.746;2023-05-03T01:49:32;100035.00;;;10.85;73.83
8320;BME280;4197;42.130;24.746;2023-05-03T01:52:00;100029.59;;;10.85;73.42
8320;BME280;4197;42.130;24.746;2023-05-03T01:54:29;100024.75;;;10.66;74.46
8320;BME280;4197;42.130;24.746;2023-05-03T01:56:57;100025.75;;;10.74;74.77
8320;BME280;4197;42.130;24.746;2023-05-03T01:59:26;100024.16;;;10.85;73.70
8320;BME280;4197;42.130;24.746;2023-05-03T02:01:54;100019.66;;;10.77;74.39
8320;BME280;4197;42.130;24.746;2023-05-03T02:04:23;100023.81;;;10.86;74.56
8320;BME280;4197;42.130;24.746;2023-05-03T02:06:51;100024.63;;;10.75;73.65
8320;BME280;4197;42.130;24.746;2023-05-03T02:09:19;100019.97;;;10.75;74.23
8320;BME280;4197;42.130;24.746;2023-05-03T02:11:47;100024.16;;;10.85;75.02
8320;BME280;4197;42.130;24.746;2023-05-03T02:14:15;100023.00;;;10.86;73.66
8320;BME280;4197;42.130;24.746;2023-05-03T02:16:45;100023.03;;;10.74;74.34
8320;BME280;4197;42.130;24.746;2023-05-03T02:19:14;100025.63;;;10.82;74.65
8320;BME280;4197;42.130;24.746;2023-05-03T02:21:42;100027.69;;;10.73;75.41
8320;BME280;4197;42.130;24.746;2023-05-03T02:24:10;100036.16;;;10.71;76.85
8320;BME280;4197;42.130;24.746;2023-05-03T02:26:38;100031.63;;;10.76;77.36
8320;BME280;4197;42.130;24.746;2023-05-03T02:29:06;100036.59;;;10.86;77.09
8320;BME280;4197;42.130;24.746;2023-05-03T02:31:36;100032.84;;;10.90;76.58
8320;BME280;4197;42.130;24.746;2023-05-03T02:34:05;100026.84;;;10.97;75.37
8320;BME280;4197;42.130;24.746;2023-05-03T02:36:33;100034.09;;;10.93;75.23
8320;BME280;4197;42.130;24.746;2023-05-03T02:39:01;100023.50;;;10.76;74.17
8320;BME280;4197;42.130;24.746;2023-05-03T02:41:30;100024.06;;;10.81;74.27
8320;BME280;4197;42.130;24.746;2023-05-03T02:43:58;100021.47;;;10.73;74.79
8320;BME280;4197;42.130;24.746;2023-05-03T02:46:26;100022.47;;;10.68;75.61
8320;BME280;4197;42.130;24.746;2023-05-03T02:48:55;100024.50;;;10.83;75.91
8320;BME280;4197;42.130;24.746;2023-05-03T02:51:28;100014.44;;;10.84;76.29
8320;BME280;4197;42.130;24.746;2023-05-03T02:53:56;100016.47;;;10.87;75.94
8320;BME280;4197;42.130;24.746;2023-05-03T02:56:25;100024.38;;;10.80;76.52
8320;BME280;4197;42.130;24.746;2023-05-03T02:58:54;100039.53;;;10.81;76.58
8320;BME280;4197;42.130;24.746;2023-05-03T03:01:22;100042.81;;;10.86;76.30
8320;BME280;4197;42.130;24.746;2023-05-03T03:03:50;100048.81;;;10.92;76.17
8320;BME280;4197;42.130;24.746;2023-05-03T03:06:19;100062.38;;;10.92;75.95
8320;BME280;4197;42.130;24.746;2023-05-03T03:08:48;100059.75;;;10.96;75.73
8320;BME280;4197;42.130;24.746;2023-05-03T03:11:16;100061.00;;;10.98;75.66
8320;BME280;4197;42.130;24.746;2023-05-03T03:13:44;100068.22;;;10.94;74.91
8320;BME280;4197;42.130;24.746;2023-05-03T03:16:13;100055.69;;;10.89;75.58
8320;BME280;4197;42.130;24.746;2023-05-03T03:18:41;100056.06;;;10.76;76.31
8320;BME280;4197;42.130;24.746;2023-05-03T03:21:09;100067.91;;;10.71;77.23
8320;BME280;4197;42.130;24.746;2023-05-03T03:23:37;100067.03;;;10.67;77.50
8320;BME280;4197;42.130;24.746;2023-05-03T03:26:07;100072.00;;;10.65;78.08
8320;BME280;4197;42.130;24.746;2023-05-03T03:28:35;100064.16;;;10.63;78.43
8320;BME280;4197;42.130;24.746;2023-05-03T03:31:03;100056.94;;;10.43;79.36
8320;BME280;4197;42.130;24.746;2023-05-03T03:33:31;100064.97;;;10.39;80.39
8320;BME280;4197;42.130;24.746;2023-05-03T03:35:59;100070.84;;;10.54;79.50
8320;BME280;4197;42.130;24.746;2023-05-03T03:38:28;100080.00;;;10.49;80.17
8320;BME280;4197;42.130;24.746;2023-05-03T03:40:56;100091.25;;;10.39;81.08
8320;BME280;4197;42.130;24.746;2023-05-03T03:43:26;100097.63;;;10.43;82.28
8320;BME280;4197;42.130;24.746;2023-05-03T03:45:54;100097.94;;;10.41;82.00
8320;BME280;4197;42.130;24.746;2023-05-03T03:48:22;100100.31;;;10.43;82.39
8320;BME280;4197;42.130;24.746;2023-05-03T03:50:50;100098.66;;;10.51;81.89
8320;BME280;4197;42.130;24.746;2023-05-03T03:53:18;100092.66;;;10.45;82.88
8320;BME280;4197;42.130;24.746;2023-05-03T03:55:46;100101.69;;;10.49;82.83
8320;BME280;4197;42.130;24.746;2023-05-03T03:58:15;100111.84;;;10.52;83.58
8320;BME280;4197;42.130;24.746;2023-05-03T04:00:44;100117.50;;;10.47;83.17
8320;BME280;4197;42.130;24.746;2023-05-03T04:03:14;100124.63;;;10.52;83.44
8320;BME280;4197;42.130;24.746;2023-05-03T04:05:42;100113.22;;;10.58;83.68
8320;BME280;4197;42.130;24.746;2023-05-03T04:08:11;100110.75;;;10.53;84.11
8320;BME280;4197;42.130;24.746;2023-05-03T04:10:39;100126.75;;;10.46;86.06
8320;BME280;4197;42.130;24.746;2023-05-03T04:13:07;100122.16;;;10.59;85.93
8320;BME280;4197;42.130;24.746;2023-05-03T04:15:36;100133.91;;;10.63;86.39
8320;BME280;4197;42.130;24.746;2023-05-03T04:18:05;100130.06;;;10.64;87.72
8320;BME280;4197;42.130;24.746;2023-05-03T04:20:34;100141.94;;;10.59;89.28
8320;BME280;4197;42.130;24.746;2023-05-03T04:23:03;100146.22;;;10.60;90.05
8320;BME280;4197;42.130;24.746;2023-05-03T04:25:31;100157.94;;;10.52;92.84
8320;BME280;4197;42.130;24.746;2023-05-03T04:27:59;100167.22;;;10.51;97.34
8320;BME280;4197;42.130;24.746;2023-05-03T04:30:28;100183.38;;;10.47;98.89
8320;BME280;4197;42.130;24.746;2023-05-03T04:32:56;100184.06;;;10.57;99.33
8320;BME280;4197;42.130;24.746;2023-05-03T04:35:27;100202.38;;;10.60;99.20
8320;BME280;4197;42.130;24.746;2023-05-03T04:37:55;100217.00;;;10.67;100.00
8320;BME280;4197;42.130;24.746;2023-05-03T04:40:23;100210.78;;;10.67;100.00
8320;BME280;4197;42.130;24.746;2023-05-03T04:42:51;100216.78;;;10.73;100.00
8320;BME280;4197;42.130;24.746;2023-05-03T04:45:19;100218.09;;;10.66;100.00
8320;BME280;4197;42.130;24.746;2023-05-03T04:47:48;100224.97;;;10.64;100.00
8320;BME280;4197;42.130;24.746;2023-05-03T04:50:17;100217.81;;;10.47;100.00
8320;BME280;4197;42.130;24.746;2023-05-03T04:52:47;100209.31;;;10.36;100.00
8320;BME280;4197;42.130;24.746;2023-05-03T04:55:15;100220.69;;;10.30;100.00
8320;BME280;4197;42.130;24.746;2023-05-03T04:57:44;100230.75;;;10.29;100.00
8320;BME280;4197;42.130;24.746;2023-05-03T05:00:13;100233.50;;;10.20;100.00
8320;BME280;4197;42.130;24.746;2023-05-03T05:02:42;100238.06;;;10.08;100.00
8320;BME280;4197;42.130;24.746;2023-05-03T05:05:11;100240.78;;;10.08;100.00
8320;BME280;4197;42.130;24.746;2023-05-03T05:07:39;100243.16;;;10.09;100.00
8320;BME280;4197;42.130;24.746;2023-05-03T05:10:10;100253.66;;;10.11;100.00
8320;BME280;4197;42.130;24.746;2023-05-03T05:12:38;100254.00;;;10.09;100.00
8320;BME280;4197;42.130;24.746;2023-05-03T05:15:08;100262.72;;;10.15;100.00
8320;BME280;4197;42.130;24.746;2023-05-03T05:17:37;100262.53;;;10.20;100.00
8320;BME280;4197;42.130;24.746;2023-05-03T05:20:06;100255.88;;;10.17;100.00
8320;BME280;4197;42.130;24.746;2023-05-03T05:22:38;100258.00;;;10.03;100.00
8320;BME280;4197;42.130;24.746;2023-05-03T05:25:07;100247.91;;;10.12;100.00
8320;BME280;4197;42.130;24.746;2023-05-03T05:27:36;100243.09;;;9.97;100.00
8320;BME280;4197;42.130;24.746;2023-05-03T05:30:06;100241.63;;;9.78;100.00
8320;BME280;4197;42.130;24.746;2023-05-03T05:32:35;100247.78;;;9.88;100.00
8320;BME280;4197;42.130;24.746;2023-05-03T05:35:04;100235.22;;;9.83;100.00
8320;BME280;4197;42.130;24.746;2023-05-03T05:37:34;100232.69;;;9.78;100.00
8320;BME280;4197;42.130;24.746;2023-05-03T05:40:02;100239.97;;;9.86;100.00
8320;BME280;4197;42.130;24.746;2023-05-03T05:42:32;100235.69;;;10.06;100.00
8320;BME280;4197;42.130;24.746;2023-05-03T05:45:02;100225.69;;;10.19;100.00
8320;BME280;4197;42.130;24.746;2023-05-03T05:47:30;100227.41;;;10.23;100.00
8320;BME280;4197;42.130;24.746;2023-05-03T05:49:58;100240.59;;;10.34;100.00
8320;BME280;4197;42.130;24.746;2023-05-03T05:52:27;100219.44;;;10.27;100.00
8320;BME280;4197;42.130;24.746;2023-05-03T05:54:56;100217.75;;;10.14;100.00
8320;BME280;4197;42.130;24.746;2023-05-03T05:57:24;100226.91;;;10.09;100.00
8320;BME280;4197;42.130;24.746;2023-05-03T05:59:53;100215.44;;;10.24;100.00
8320;BME280;4197;42.130;24.746;2023-05-03T06:02:23;100215.41;;;10.33;100.00
8320;BME280;4197;42.130;24.746;2023-05-03T06:04:55;100217.97;;;10.63;100.00
8320;BME280;4197;42.130;24.746;2023-05-03T06:07:24;100219.94;;;10.75;100.00
8320;BME280;4197;42.130;24.746;2023-05-03T06:09:55;100218.50;;;10.89;100.00
8320;BME280;4197;42.130;24.746;2023-05-03T06:12:23;100220.31;;;10.98;100.00
8320;BME280;4197;42.130;24.746;2023-05-03T06:14:51;100207.66;;;11.26;100.00
8320;BME280;4197;42.130;24.746;2023-05-03T06:17:33;100213.66;;;11.32;100.00
8320;BME280;4197;42.130;24.746;2023-05-03T06:20:02;100224.41;;;11.16;100.00
8320;BME280;4197;42.130;24.746;2023-05-03T06:22:32;100229.94;;;11.32;100.00
8320;BME280;4197;42.130;24.746;2023-05-03T06:25:00;100231.31;;;11.50;100.00
8320;BME280;4197;42.130;24.746;2023-05-03T06:27:30;100230.69;;;11.81;100.00
8320;BME280;4197;42.130;24.746;2023-05-03T06:29:58;100223.47;;;11.86;100.00
8320;BME280;4197;42.130;24.746;2023-05-03T06:32:27;100218.22;;;11.80;100.00
8320;BME280;4197;42.130;24.746;2023-05-03T06:34:57;100213.81;;;12.00;100.00
8320;BME280;4197;42.130;24.746;2023-05-03T06:37:28;100209.13;;;12.13;100.00
8320;BME280;4197;42.130;24.746;2023-05-03T06:39:57;100212.53;;;12.10;100.00
8320;BME280;4197;42.130;24.746;2023-05-03T06:42:27;100206.25;;;12.22;100.00
8320;BME280;4197;42.130;24.746;2023-05-03T06:44:56;100208.91;;;12.62;100.00
8320;BME280;4197;42.130;24.746;2023-05-03T06:47:25;100203.03;;;12.76;100.00
8320;BME280;4197;42.130;24.746;2023-05-03T06:49:53;100198.88;;;12.66;100.00
8320;BME280;4197;42.130;24.746;2023-05-03T06:52:23;100194.34;;;12.86;100.00
8320;BME280;4197;42.130;24.746;2023-05-03T06:54:51;100189.53;;;12.95;100.00
8320;BME280;4197;42.130;24.746;2023-05-03T06:57:20;100184.41;;;12.94;100.00
8320;BME280;4197;42.130;24.746;2023-05-03T06:59:49;100192.41;;;13.18;100.00
8320;BME280;4197;42.130;24.746;2023-05-03T07:02:17;100186.53;;;13.32;100.00
8320;BME280;4197;42.130;24.746;2023-05-03T07:04:46;100183.22;;;13.58;100.00
8320;BME280;4197;42.130;24.746;2023-05-03T07:07:14;100188.94;;;13.89;100.00
8320;BME280;4197;42.130;24.746;2023-05-03T07:09:44;100192.50;;;14.12;99.88
8320;BME280;4197;42.130;24.746;2023-05-03T07:12:13;100195.97;;;13.54;95.58
8320;BME280;4197;42.130;24.746;2023-05-03T07:14:42;100185.13;;;13.07;100.00
8320;BME280;4197;42.130;24.746;2023-05-03T07:17:10;100182.22;;;13.31;100.00
8320;BME280;4197;42.130;24.746;2023-05-03T07:19:38;100182.91;;;12.97;100.00
8320;BME280;4197;42.130;24.746;2023-05-03T07:22:07;100185.41;;;13.33;100.00
8320;BME280;4197;42.130;24.746;2023-05-03T07:24:38;100182.75;;;13.37;100.00
8320;BME280;4197;42.130;24.746;2023-05-03T07:27:07;100191.44;;;13.97;94.86
8320;BME280;4197;42.130;24.746;2023-05-03T07:29:35;100191.66;;;14.08;96.09
8320;BME280;4197;42.130;24.746;2023-05-03T07:32:04;100202.41;;;14.40;92.06
8320;BME280;4197;42.130;24.746;2023-05-03T07:34:32;100191.72;;;13.73;92.88
8320;BME280;4197;42.130;24.746;2023-05-03T07:37:01;100197.50;;;13.20;98.64
8320;BME280;4197;42.130;24.746;2023-05-03T07:39:29;100187.53;;;13.59;97.14
8320;BME280;4197;42.130;24.746;2023-05-03T07:41:57;100174.66;;;13.25;92.99
8320;BME280;4197;42.130;24.746;2023-05-03T07:44:27;100170.34;;;13.08;98.10
8320;BME280;4197;42.130;24.746;2023-05-03T07:46:55;100168.16;;;13.13;100.00
8320;BME280;4197;42.130;24.746;2023-05-03T07:49:26;100169.31;;;12.97;98.02
8320;BME280;4197;42.130;24.746;2023-05-03T07:51:55;100183.63;;;13.60;100.00
8320;BME280;4197;42.130;24.746;2023-05-03T07:54:23;100182.88;;;14.18;99.01
8320;BME280;4197;42.130;24.746;2023-05-03T07:56:51;100180.00;;;14.50;88.86
8320;BME280;4197;42.130;24.746;2023-05-03T07:59:22;100166.88;;;14.36;88.35
8320;BME280;4197;42.130;24.746;2023-05-03T08:01:52;100154.13;;;14.01;88.60
8320;BME280;4197;42.130;24.746;2023-05-03T08:04:21;100162.94;;;14.34;88.31
8320;BME280;4197;42.130;24.746;2023-05-03T08:06:50;100160.81;;;14.46;87.90
8320;BME280;4197;42.130;24.746;2023-05-03T08:09:18;100157.03;;;14.74;86.88
8320;BME280;4197;42.130;24.746;2023-05-03T08:11:46;100153.09;;;14.94;84.93
8320;BME280;4197;42.130;24.746;2023-05-03T08:14:15;100158.03;;;15.38;82.46
8320;BME280;4197;42.130;24.746;2023-05-03T08:16:43;100161.47;;;15.62;82.30
8320;BME280;4197;42.130;24.746;2023-05-03T08:19:12;100170.91;;;15.95;80.26
8320;BME280;4197;42.130;24.746;2023-05-03T08:21:41;100172.44;;;16.26;77.77
8320;BME280;4197;42.130;24.746;2023-05-03T08:24:09;100160.28;;;16.23;75.09
8320;BME280;4197;42.130;24.746;2023-05-03T08:26:42;100145.25;;;15.73;74.86
8320;BME280;4197;42.130;24.746;2023-05-03T08:29:12;100142.31;;;15.05;77.90
8320;BME280;4197;42.130;24.746;2023-05-03T08:31:41;100147.94;;;14.66;79.31
8320;BME280;4197;42.130;24.746;2023-05-03T08:34:09;100149.16;;;14.69;79.19
8320;BME280;4197;42.130;24.746;2023-05-03T08:36:40;100151.97;;;14.99;77.04
8320;BME280;4197;42.130;24.746;2023-05-03T08:39:09;100147.88;;;15.39;77.56
8320;BME280;4197;42.130;24.746;2023-05-03T08:41:38;100147.16;;;15.15;73.68
8320;BME280;4197;42.130;24.746;2023-05-03T08:44:07;100144.31;;;15.08;74.29
8320;BME280;4197;42.130;24.746;2023-05-03T08:46:38;100135.69;;;15.06;74.37
8320;BME280;4197;42.130;24.746;2023-05-03T08:49:06;100136.25;;;15.46;75.91
8320;BME280;4197;42.130;24.746;2023-05-03T08:51:35;100139.13;;;15.83;73.22
8320;BME280;4197;42.130;24.746;2023-05-03T08:54:08;100144.28;;;15.88;70.66
8320;BME280;4197;42.130;24.746;2023-05-03T08:56:39;100125.59;;;14.84;73.86
8320;BME280;4197;42.130;24.746;2023-05-03T08:59:09;100122.97;;;15.17;74.78
8320;BME280;4197;42.130;24.746;2023-05-03T09:01:38;100106.44;;;15.64;72.88
8320;BME280;4197;42.130;24.746;2023-05-03T09:04:08;100097.16;;;16.05;70.43
8320;BME280;4197;42.130;24.746;2023-05-03T09:06:37;100108.88;;;16.43;68.80
8320;BME280;4197;42.130;24.746;2023-05-03T09:09:08;100110.22;;;16.64;68.09
8320;BME280;4197;42.130;24.746;2023-05-03T09:11:37;100120.72;;;16.14;69.46
8320;BME280;4197;42.130;24.746;2023-05-03T09:14:11;100120.88;;;15.64;74.69
8320;BME280;4197;42.130;24.746;2023-05-03T09:16:41;100111.81;;;15.87;73.59
8320;BME280;4197;42.130;24.746;2023-05-03T09:19:11;100095.69;;;16.56;70.60
8320;BME280;4197;42.130;24.746;2023-05-03T09:21:40;100104.91;;;16.82;69.48
8320;BME280;4197;42.130;24.746;2023-05-03T09:24:14;100098.66;;;16.85;67.95
8320;BME280;4197;42.130;24.746;2023-05-03T09:26:43;100091.69;;;16.91;67.17
8320;BME280;4197;42.130;24.746;2023-05-03T09:29:26;100085.53;;;17.05;68.17
8320;BME280;4197;42.130;24.746;2023-05-03T09:32:00;100082.38;;;17.06;68.17
8320;BME280;4197;42.130;24.746;2023-05-03T09:34:30;100078.06;;;17.05;68.67
8320;BME280;4197;42.130;24.746;2023-05-03T09:36:59;100097.44;;;17.37;67.45
8320;BME280;4197;42.130;24.746;2023-05-03T09:39:29;100085.78;;;17.62;68.15
8320;BME280;4197;42.130;24.746;2023-05-03T09:41:57;100092.19;;;17.95;64.46
8320;BME280;4197;42.130;24.746;2023-05-03T09:44:40;100092.25;;;18.20;64.00
8320;BME280;4197;42.130;24.746;2023-05-03T09:47:09;100101.66;;;18.04;64.47
8320;BME280;4197;42.130;24.746;2023-05-03T09:49:38;100097.56;;;17.63;63.02
8320;BME280;4197;42.130;24.746;2023-05-03T09:52:07;100094.13;;;17.07;65.89
8320;BME280;4197;42.130;24.746;2023-05-03T09:54:36;100091.91;;;17.30;66.68
8320;BME280;4197;42.130;24.746;2023-05-03T09:57:07;100091.75;;;17.78;66.21
8320;BME280;4197;42.130;24.746;2023-05-03T09:59:38;100092.59;;;18.00;64.49
8320;BME280;4197;42.130;24.746;2023-05-03T10:02:06;100093.06;;;18.27;64.80
8320;BME280;4197;42.130;24.746;2023-05-03T10:04:39;100097.75;;;18.31;64.21
8320;BME280;4197;42.130;24.746;2023-05-03T10:07:12;100112.28;;;18.42;64.87
8320;BME280;4197;42.130;24.746;2023-05-03T10:09:44;100120.94;;;18.58;63.68
8320;BME280;4197;42.130;24.746;2023-05-03T10:12:13;100116.22;;;18.55;63.35
8320;BME280;4197;42.130;24.746;2023-05-03T10:14:45;100126.03;;;18.56;63.62
8320;BME280;4197;42.130;24.746;2023-05-03T10:17:16;100126.41;;;18.30;63.64
8320;BME280;4197;42.130;24.746;2023-05-03T10:19:50;100113.63;;;17.68;65.58
8320;BME280;4197;42.130;24.746;2023-05-03T10:22:19;100099.44;;;17.41;66.98
8320;BME280;4197;42.130;24.746;2023-05-03T10:25:09;100087.91;;;17.13;69.09
8320;BME280;4197;42.130;24.746;2023-05-03T10:27:50;100083.97;;;17.11;70.55
8320;BME280;4197;42.130;24.746;2023-05-03T10:30:27;100085.59;;;17.23;68.97
8320;BME280;4197;42.130;24.746;2023-05-03T10:32:58;100077.41;;;17.26;68.25
8320;BME280;4197;42.130;24.746;2023-05-03T10:35:28;100072.38;;;17.35;68.17
8320;BME280;4197;42.130;24.746;2023-05-03T10:37:56;100070.69;;;17.13;69.05
8320;BME280;4197;42.130;24.746;2023-05-03T10:40:40;100068.31;;;17.11;69.38
8320;BME280;4197;42.130;24.746;2023-05-03T10:43:42;100075.53;;;17.41;67.66
8320;BME280;4197;42.130;24.746;2023-05-03T10:46:32;100063.88;;;17.66;67.17
8320;BME280;4197;42.130;24.746;2023-05-03T10:49:20;100056.94;;;18.04;66.27
8320;BME280;4197;42.130;24.746;2023-05-03T10:51:49;100056.19;;;18.25;64.54
8320;BME280;4197;42.130;24.746;2023-05-03T10:54:17;100053.06;;;18.34;63.05
8320;BME280;4197;42.130;24.746;2023-05-03T10:56:51;100049.47;;;17.90;64.66
8320;BME280;4197;42.130;24.746;2023-05-03T10:59:20;100058.94;;;18.07;65.02
8320;BME280;4197;42.130;24.746;2023-05-03T11:01:50;100062.84;;;18.31;65.51
8320;BME280;4197;42.130;24.746;2023-05-03T11:04:43;100057.34;;;18.70;63.51
8320;BME280;4197;42.130;24.746;2023-05-03T11:07:18;100059.31;;;18.70;63.07
8320;BME280;4197;42.130;24.746;2023-05-03T11:09:48;100051.50;;;18.54;64.00
8320;BME280;4197;42.130;24.746;2023-05-03T11:12:18;100042.06;;;18.55;63.84
8320;BME280;4197;42.130;24.746;2023-05-03T11:14:49;100051.47;;;18.50;63.51
8320;BME280;4197;42.130;24.746;2023-05-03T11:17:17;100052.56;;;17.81;66.25
8320;BME280;4197;42.130;24.746;2023-05-03T11:19:45;100034.78;;;17.32;68.92
8320;BME280;4197;42.130;24.746;2023-05-03T11:22:14;100044.81;;;17.07;71.71
8320;BME280;4197;42.130;24.746;2023-05-03T11:24:42;100049.50;;;17.06;72.41
8320;BME280;4197;42.130;24.746;2023-05-03T11:27:10;100051.53;;;17.20;73.11
8320;BME280;4197;42.130;24.746;2023-05-03T11:29:47;100043.00;;;17.39;72.12
8320;BME280;4197;42.130;24.746;2023-05-03T11:32:17;100035.13;;;17.31;72.24
8320;BME280;4197;42.130;24.746;2023-05-03T11:34:46;100044.00;;;17.03;74.51
8320;BME280;4197;42.130;24.746;2023-05-03T11:37:15;100033.53;;;17.15;75.87
8320;BME280;4197;42.130;24.746;2023-05-03T11:39:44;100032.41;;;17.34;74.48
8320;BME280;4197;42.130;24.746;2023-05-03T11:42:13;100032.41;;;17.31;73.68
8320;BME280;4197;42.130;24.746;2023-05-03T11:44:43;100018.28;;;17.25;75.07
8320;BME280;4197;42.130;24.746;2023-05-03T11:47:11;100003.34;;;17.12;75.00
8320;BME280;4197;42.130;24.746;2023-05-03T11:49:40;99990.34;;;16.94;75.58
8320;BME280;4197;42.130;24.746;2023-05-03T11:52:21;99994.22;;;16.86;77.25
8320;BME280;4197;42.130;24.746;2023-05-03T11:54:50;99983.44;;;16.60;76.44
8320;BME280;4197;42.130;24.746;2023-05-03T11:57:19;100005.59;;;16.40;74.51
8320;BME280;4197;42.130;24.746;2023-05-03T11:59:49;99998.91;;;16.31;76.28
8320;BME280;4197;42.130;24.746;2023-05-03T12:02:17;100001.44;;;16.05;75.40
8320;BME280;4197;42.130;24.746;2023-05-03T12:04:45;99999.06;;;15.67;77.46
8320;BME280;4197;42.130;24.746;2023-05-03T12:07:14;100001.75;;;16.00;77.28
8320;BME280;4197;42.130;24.746;2023-05-03T12:09:47;99989.28;;;16.03;75.16
8320;BME280;4197;42.130;24.746;2023-05-03T12:12:35;99986.78;;;15.87;77.25
8320;BME280;4197;42.130;24.746;2023-05-03T12:15:13;99983.88;;;16.10;77.29
8320;BME280;4197;42.130;24.746;2023-05-03T12:18:00;99992.44;;;16.05;78.44
8320;BME280;4197;42.130;24.746;2023-05-03T12:20:30;99994.88;;;16.17;78.38
8320;BME280;4197;42.130;24.746;2023-05-03T12:23:19;99984.81;;;16.32;78.03
8320;BME280;4197;42.130;24.746;2023-05-03T12:25:48;99986.00;;;16.35;77.88
8320;BME280;4197;42.130;24.746;2023-05-03T12:28:18;99996.59;;;16.36;75.95
8320;BME280;4197;42.130;24.746;2023-05-03T12:30:49;99990.47;;;16.05;77.95
8320;BME280;4197;42.130;24.746;2023-05-03T12:33:19;99992.19;;;15.46;81.35
8320;BME280;4197;42.130;24.746;2023-05-03T12:35:49;99982.69;;;15.33;82.89
8320;BME280;4197;42.130;24.746;2023-05-03T12:38:20;99962.22;;;15.20;84.47
8320;BME280;4197;42.130;24.746;2023-05-03T12:40:53;99967.78;;;15.64;83.01
8320;BME280;4197;42.130;24.746;2023-05-03T12:43:21;99974.38;;;15.97;82.03
8320;BME280;4197;42.130;24.746;2023-05-03T12:45:51;99955.13;;;16.34;78.67
8320;BME280;4197;42.130;24.746;2023-05-03T12:48:39;99952.06;;;16.43;78.13
8320;BME280;4197;42.130;24.746;2023-05-03T12:51:12;99945.88;;;16.57;76.49
8320;BME280;4197;42.130;24.746;2023-05-03T12:53:47;99944.28;;;16.48;74.35
8320;BME280;4197;42.130;24.746;2023-05-03T12:56:21;99937.34;;;16.06;76.08
8320;BME280;4197;42.130;24.746;2023-05-03T12:58:51;99938.19;;;16.14;77.43
8320;BME280;4197;42.130;24.746;2023-05-03T13:01:40;99939.63;;;16.53;75.16
8320;BME280;4197;42.130;24.746;2023-05-03T13:04:12;99939.78;;;16.81;73.91
8320;BME280;4197;42.130;24.746;2023-05-03T13:06:43;99922.00;;;16.46;74.41
8320;BME280;4197;42.130;24.746;2023-05-03T13:09:13;99928.72;;;16.04;76.63
8320;BME280;4197;42.130;24.746;2023-05-03T13:11:47;99928.47;;;15.76;79.34
8320;BME280;4197;42.130;24.746;2023-05-03T13:14:16;99921.22;;;15.94;80.39
8320;BME280;4197;42.130;24.746;2023-05-03T13:16:46;99908.94;;;16.22;81.22